Time;durP1;ratioP1;P1;durP2;ratioP2;P2;SDS_P1;SDS_P2;PMS_P1;PMS_P2;Temp;Humidity;BMP_temperature;BMP_pressure;BME280_temperature;BME280_humidity;BME280_pressure;Samples;Min_cycle;Max_cycle;Signal;HPM_P1;HPM_P2
2022/06/14 00:01:02;;;;;;;11.90;5.88;;;;;;;14.69;56.53;100864.28;4969201;28;20082;-45
2022/06/14 00:03:37;;;;;;;9.30;6.55;;;;;;;14.63;56.74;100859.97;4971343;28;20050;-46
2022/06/14 00:06:08;;;;;;;9.43;5.55;;;;;;;14.61;57.22;100861.72;4971895;28;20038;-43
2022/06/14 00:08:36;;;;;;;11.77;5.07;;;;;;;14.58;57.24;100858.25;4978375;28;20047;-51
2022/06/14 00:11:13;;;;;;;8.68;5.43;;;;;;;14.53;57.98;100859.16;4972907;28;20081;-48
2022/06/14 00:13:41;;;;;;;7.65;3.42;;;;;;;14.50;57.70;100859.22;4975573;28;20526;-52
2022/06/14 00:16:08;;;;;;;9.50;7.50;;;;;;;14.46;58.02;100862.69;4970656;28;20499;-43
2022/06/14 00:18:35;;;;;;;8.63;4.43;;;;;;;14.45;58.20;100855.75;4982206;28;20129;-45
2022/06/14 00:21:02;;;;;;;8.43;4.70;;;;;;;14.46;57.19;100856.63;4974581;28;20100;-46
2022/06/14 00:23:29;;;;;;;8.48;4.82;;;;;;;14.45;57.67;100857.50;4975199;28;20053;-44
2022/06/14 00:25:57;;;;;;;10.00;5.70;;;;;;;14.44;57.97;100851.41;4977897;28;20116;-45
2022/06/14 00:28:27;;;;;;;8.15;5.18;;;;;;;14.46;57.54;100851.41;4977530;28;20046;-45
2022/06/14 00:30:57;;;;;;;12.00;4.82;;;;;;;14.44;57.36;100853.13;4974483;28;20199;-43
2022/06/14 00:33:24;;;;;;;11.02;5.80;;;;;;;14.42;57.67;100844.47;4982454;28;20046;-47
2022/06/14 00:36:01;;;;;;;11.13;5.55;;;;;;;14.37;58.02;100841.91;4979178;28;20124;-45
2022/06/14 00:38:28;;;;;;;8.70;5.25;;;;;;;14.39;58.16;100851.44;4976690;28;20043;-47
2022/06/14 00:40:58;;;;;;;8.18;5.10;;;;;;;14.32;58.17;100854.09;4980638;28;20050;-48
2022/06/14 00:43:27;;;;;;;8.27;4.85;;;;;;;14.25;58.46;100848.91;4977248;28;20058;-46
2022/06/14 00:48:32;;;;;;;7.60;3.45;;;;;;;14.22;57.96;100853.28;5080135;27;20404;-43
2022/06/14 00:53:50;;;;;;;7.13;4.03;;;;;;;14.12;58.28;100842.88;5033452;27;20405;-44
2022/06/14 00:56:50;;;;;;;6.95;3.95;;;;;;;14.09;58.35;100845.50;5025401;28;20051;-43
2022/06/14 00:59:24;;;;;;;9.93;4.25;;;;;;;14.14;58.85;100845.47;5024524;28;20046;-48
2022/06/14 01:01:55;;;;;;;11.13;3.95;;;;;;;14.18;59.01;100848.97;5020228;28;20041;-43
2022/06/14 01:04:27;;;;;;;10.00;4.30;;;;;;;14.18;59.45;100838.53;5022834;28;20099;-44
2022/06/14 01:09:52;;;;;;;7.80;4.03;;;;;;;14.08;58.97;100842.94;5062436;28;20410;-45
2022/06/14 01:12:22;;;;;;;10.00;3.80;;;;;;;14.11;59.08;100840.28;5051239;28;20128;-46
2022/06/14 01:17:43;;;;;;;10.50;5.45;;;;;;;14.06;59.88;100837.72;5034202;27;20410;-45
2022/06/14 01:20:11;;;;;;;;;;;;;;;13.84;60.00;100834.31;5020670;28;20115;-48
2022/06/14 01:22:39;;;;;;;7.65;3.78;;;;;;;14.01;60.11;100840.34;5025105;28;20324;-49
2022/06/14 01:25:07;;;;;;;10.05;6.00;;;;;;;14.05;58.89;100835.13;5022513;28;20092;-45
2022/06/14 01:27:36;;;;;;;9.35;4.03;;;;;;;14.05;59.55;100822.94;5026906;28;20401;-43
2022/06/14 01:30:11;;;;;;;8.10;4.68;;;;;;;14.05;59.88;100825.53;5022684;28;20107;-49
2022/06/14 01:32:45;;;;;;;12.18;6.07;;;;;;;14.08;59.17;100827.28;5018741;28;20057;-46
2022/06/14 01:35:16;;;;;;;8.27;4.35;;;;;;;14.11;59.18;100825.53;5025911;28;20042;-47
2022/06/14 01:37:48;;;;;;;7.57;4.32;;;;;;;14.13;59.46;100829.00;5020790;28;20426;-44
2022/06/14 01:40:15;;;;;;;9.40;4.80;;;;;;;14.16;60.00;100822.03;5018678;28;20049;-43
2022/06/14 01:42:55;;;;;;;8.73;5.15;;;;;;;14.14;59.12;100819.44;5024151;28;20100;-49
2022/06/14 01:45:39;;;;;;;9.85;5.35;;;;;;;14.11;59.81;100822.03;5023690;28;20123;-48
2022/06/14 01:48:30;;;;;;;10.25;5.88;;;;;;;14.05;60.30;100825.53;5024013;28;20048;-43
2022/06/14 01:51:52;;;;;;;8.07;5.07;;;;;;;14.03;59.96;100826.44;5017430;28;20042;-48
2022/06/14 02:26:27;;;;;;;8.27;5.45;;;;;;;14.05;60.64;100799.50;5044608;28;20412;-50
2022/06/14 02:29:02;;;;;;;7.40;5.20;;;;;;;13.94;61.13;100806.50;5043599;28;20048;-45
2022/06/14 02:31:35;;;;;;;7.95;5.18;;;;;;;13.88;60.91;100802.19;5037333;28;20046;-42
2022/06/14 02:34:15;;;;;;;9.00;5.28;;;;;;;13.81;60.73;100793.53;5042731;28;20064;-45
2022/06/14 02:39:27;;;;;;;8.32;3.90;;;;;;;13.80;60.58;100789.22;5059462;28;20403;-44
2022/06/14 02:47:22;;;;;;;7.95;3.90;;;;;;;13.62;61.40;100791.00;5040999;28;20743;-43
2022/06/14 02:50:13;;;;;;;8.07;4.18;;;;;;;13.53;61.35;100785.84;5025020;28;20057;-46
2022/06/14 02:52:49;;;;;;;7.70;4.07;;;;;;;13.55;61.73;100789.31;5022055;28;20048;-44
2022/06/14 02:55:25;;;;;;;8.73;4.30;;;;;;;13.49;60.54;100797.13;5024990;28;20076;-45
2022/06/14 02:58:01;;;;;;;7.30;4.13;;;;;;;13.43;61.88;100794.50;5023482;28;20049;-44
2022/06/14 03:00:36;;;;;;;7.47;3.78;;;;;;;13.39;61.60;100793.66;5022104;28;20054;-43
2022/06/14 03:03:10;;;;;;;8.57;4.13;;;;;;;13.33;61.02;100786.72;5026099;28;20045;-44
2022/06/14 03:06:02;;;;;;;10.88;3.88;;;;;;;13.19;61.96;100791.09;5023611;28;20406;-44
2022/06/14 03:19:06;;;;;;;10.63;4.85;;;;;;;13.11;61.83;100793.72;5061212;27;20398;-43
2022/06/14 03:27:14;;;;;;;10.50;4.38;;;;;;;12.98;62.29;100792.84;5025506;28;20754;-47
2022/06/14 03:47:59;;;;;;;12.90;4.50;;;;;;;13.01;64.23;100776.38;5024363;28;20896;-45
2022/06/14 03:50:35;;;;;;;9.60;4.32;;;;;;;12.91;63.55;100770.31;5012899;28;20042;-44
2022/06/14 03:58:42;;;;;;;8.00;4.95;;;;;;;12.81;63.69;100775.53;5053941;27;20409;-47
2022/06/14 04:17:22;;;;;;;12.20;4.55;;;;;;;12.78;64.01;100765.13;5044376;27;20394;-46
2022/06/14 04:20:22;;;;;;;12.00;4.82;;;;;;;12.76;63.37;100766.84;5021986;28;20054;-47
2022/06/14 04:23:05;;;;;;;11.00;4.85;;;;;;;12.80;62.64;100767.75;5011138;28;20054;-44
2022/06/14 04:36:14;;;;;;;10.13;5.45;;;;;;;13.06;64.60;100766.81;5047157;27;20402;-42
2022/06/14 04:38:46;;;;;;;10.35;4.93;;;;;;;13.09;64.25;100775.50;5032088;28;20060;-47
2022/06/14 04:50:05;;;;;;;12.10;6.25;;;;;;;13.53;63.18;100765.00;5037443;28;20418;-42
2022/06/14 04:57:50;;;;;;;10.50;3.53;;;;;;;13.25;62.73;100770.28;5080717;27;20730;-42
2022/06/14 05:00:21;;;;;;;8.68;3.45;;;;;;;13.25;63.73;100770.28;5024067;28;20053;-47
2022/06/14 05:03:27;;;;;;;8.55;3.85;;;;;;;13.21;63.18;100776.34;5018454;28;20239;-46
2022/06/14 05:08:36;;;;;;;8.27;3.65;;;;;;;13.27;63.10;100767.66;5038029;28;20410;-44
2022/06/14 05:17:06;;;;;;;9.43;4.53;;;;;;;13.67;63.95;100772.78;5037144;27;20406;-46
2022/06/14 05:19:45;;;;;;;10.27;4.10;;;;;;;13.47;64.44;100775.41;4996332;28;20050;-43
2022/06/14 05:24:55;;;;;;;9.07;3.70;;;;;;;13.49;62.65;100784.13;5082538;27;20726;-46
2022/06/14 05:28:01;;;;;;;9.88;3.20;;;;;;;13.43;62.87;100774.56;5024678;28;20820;-44
2022/06/14 08:03:28;;;;;;;8.88;4.28;;;;;;;22.05;51.69;100786.75;5025146;28;20460;-45
2022/06/14 08:05:57;;;;;;;7.07;3.97;;;;;;;22.29;51.71;100770.84;5017679;28;20137;-45
2022/06/14 08:08:30;;;;;;;8.05;3.38;;;;;;;22.59;50.80;100774.97;5015237;28;20038;-47
2022/06/14 08:11:04;;;;;;;7.40;3.78;;;;;;;22.73;50.96;100775.25;5015947;28;20113;-46
2022/06/14 08:13:39;;;;;;;6.10;4.10;;;;;;;23.00;50.52;100770.63;5012781;28;20057;-46
2022/06/14 08:16:09;;;;;;;7.07;4.15;;;;;;;23.23;49.57;100774.91;5016710;28;20046;-49
2022/06/14 08:18:44;;;;;;;;;;;;;;;23.36;50.52;100773.47;5003423;28;20822;-51
2022/06/14 08:34:33;;;;;;;6.25;3.42;;;;;;;24.72;45.65;100763.56;5111239;27;20383;-46
2022/06/14 08:37:23;;;;;;;7.22;3.42;;;;;;;24.87;46.14;100762.81;5061595;28;20054;-50
2022/06/14 08:39:55;;;;;;;4.00;2.88;;;;;;;25.07;46.67;100768.88;5089218;28;20052;-47
2022/06/14 08:45:13;;;;;;;10.55;3.03;;;;;;;25.53;44.39;100759.41;5013363;27;20899;-48
2022/06/14 08:48:03;;;;;;;5.25;3.28;;;;;;;25.64;44.31;100754.34;4982194;28;20046;-46
2022/06/14 08:51:10;;;;;;;5.10;3.00;;;;;;;25.84;43.78;100752.41;5004366;28;20054;-50
2022/06/14 09:02:21;;;;;;;5.97;4.10;;;;;;;26.30;42.39;100748.09;5018381;28;20431;-50
2022/06/14 09:05:28;;;;;;;7.38;4.50;;;;;;;26.50;41.33;100754.03;5006618;28;20077;-44
2022/06/14 09:11:11;;;;;;;4.93;2.70;;;;;;;27.17;38.64;100737.63;5043855;28;20410;-51
2022/06/14 09:28:04;;;;;;;5.15;2.83;;;;;;;27.11;38.63;100743.31;5061710;28;20477;-49
2022/06/14 09:58:16;;;;;;;4.10;2.83;;;;;;;26.11;39.65;100709.28;5040636;28;20388;-48
2022/06/14 10:01:22;;;;;;;5.05;2.58;;;;;;;26.22;40.16;100714.00;5012730;28;20452;-50
2022/06/14 11:41:01;;;;;;;4.47;2.13;;;;;;;28.30;36.00;100656.81;5038590;27;20428;-45
2022/06/14 11:51:32;;;;;;;5.20;1.92;;;;;;;28.28;36.56;100653.44;5016916;27;20784;-47
2022/06/14 12:07:42;;;;;;;4.20;1.90;;;;;;;28.27;36.25;100634.84;5046806;27;20413;-46
2022/06/14 12:18:30;;;;;;;4.25;1.98;;;;;;;28.36;34.78;100631.56;5041144;28;20397;-45
2022/06/14 12:21:34;;;;;;;3.25;2.47;;;;;;;28.13;35.88;100639.28;5023205;28;20073;-44
2022/06/14 12:24:07;;;;;;;3.85;1.50;;;;;;;28.30;35.40;100630.19;5023589;28;20559;-51
2022/06/14 12:26:46;;;;;;;5.78;2.58;;;;;;;28.26;35.57;100628.66;5019371;28;20053;-46
2022/06/14 12:29:20;;;;;;;4.50;1.92;;;;;;;28.21;35.65;100631.66;5022068;28;20046;-44
2022/06/14 13:07:59;;;;;;;3.80;1.80;;;;;;;27.98;35.08;100598.59;5095685;27;20880;-47
2022/06/14 13:24:38;;;;;;;5.22;2.03;;;;;;;28.28;34.00;100586.84;5024190;27;20418;-53
2022/06/14 13:50:48;;;;;;;4.55;2.13;;;;;;;28.61;34.61;100563.28;5022482;28;20422;-51
2022/06/14 14:03:50;;;;;;;5.43;1.65;;;;;;;28.19;34.26;100552.81;5060542;27;20404;-44
2022/06/14 14:17:43;;;;;;;3.35;2.65;;;;;;;28.15;33.71;100524.69;4988409;28;20087;-47
2022/06/14 16:33:43;;;;;;;6.00;2.00;;;;;;;28.13;33.07;100449.44;5052584;28;20385;-44
2022/06/14 16:46:59;;;;;;;3.58;1.58;;;;;;;27.55;32.84;100437.38;5062965;27;20401;-46
2022/06/14 16:49:37;;;;;;;3.92;1.50;;;;;;;27.44;32.85;100435.44;5020704;28;20046;-49
2022/06/14 16:52:13;;;;;;;4.22;1.67;;;;;;;27.42;33.10;100440.88;5022142;28;20050;-45
2022/06/14 16:55:05;;;;;;;5.30;1.50;;;;;;;27.34;33.94;100435.22;5022856;28;20058;-50
2022/06/14 17:05:39;;;;;;;2.80;1.70;;;;;;;27.26;33.58;100422.47;5026725;28;20922;-48
2022/06/14 17:08:34;;;;;;;3.17;1.77;;;;;;;27.10;34.00;100417.31;5007662;28;20105;-46
2022/06/14 17:11:16;;;;;;;2.53;1.35;;;;;;;27.12;34.36;100414.56;5012645;28;20060;-44
2022/06/14 17:19:22;;;;;;;2.83;1.60;;;;;;;27.00;33.92;100413.56;5054524;28;20475;-45
2022/06/14 17:21:57;;;;;;;4.60;1.73;;;;;;;26.94;34.30;100413.00;5016328;28;20045;-47
2022/06/14 17:35:15;;;;;;;8.38;2.72;;;;;;;26.84;34.52;100417.19;5011737;28;20501;-43
2022/06/14 17:38:21;;;;;;;8.90;2.05;;;;;;;26.72;34.51;100413.56;5005163;28;20050;-48
2022/06/14 20:33:23;;;;;;;4.57;1.48;;;;;;;21.55;42.48;100403.81;5034632;28;20405;-46
2022/06/14 20:35:51;;;;;;;2.88;1.42;;;;;;;21.46;42.39;100401.59;5015217;28;20604;-51
2022/06/14 20:38:18;;;;;;;5.07;1.60;;;;;;;21.39;42.46;100401.00;5008128;28;20149;-49
2022/06/14 20:40:46;;;;;;;4.63;1.77;;;;;;;21.34;42.29;100396.84;5010977;28;20525;-48
2022/06/14 20:48:44;;;;;;;5.72;1.60;;;;;;;21.03;43.12;100405.09;5075690;27;20434;-46
2022/06/14 20:51:14;;;;;;;3.88;1.80;;;;;;;20.96;43.38;100405.41;5054562;28;20046;-43
2022/06/14 20:53:41;;;;;;;;;;;;;;;20.53;43.64;100414.06;5047470;28;20053;-49
2022/06/14 20:56:12;;;;;;;2.97;1.65;;;;;;;20.67;44.23;100403.00;5039028;28;19920;-50
2022/06/14 20:58:40;;;;;;;3.30;1.45;;;;;;;20.58;44.24;100413.88;5032455;28;20105;-46
2022/06/14 21:01:07;;;;;;;3.28;1.45;;;;;;;20.46;44.19;100410.81;5035481;28;20049;-51
2022/06/14 21:03:34;;;;;;;2.85;1.60;;;;;;;20.36;44.66;100404.22;5037966;28;20120;-48
2022/06/14 21:06:02;;;;;;;2.78;1.48;;;;;;;20.29;44.73;100419.34;5071981;28;20079;-47
2022/06/14 21:08:29;;;;;;;6.45;1.73;;;;;;;20.23;44.69;100414.31;5070831;28;20104;-50
2022/06/14 21:16:31;;;;;;;8.05;3.42;;;;;;;20.06;45.13;100412.31;5022175;28;20406;-44
2022/06/14 21:19:00;;;;;;;4.78;2.55;;;;;;;19.93;45.70;100415.38;5006592;28;20046;-47
2022/06/14 21:21:29;;;;;;;7.05;3.05;;;;;;;19.86;46.23;100411.25;5013122;28;20254;-45
2022/06/14 21:23:58;;;;;;;4.35;2.58;;;;;;;19.76;46.51;100405.47;5006532;28;20112;-46
2022/06/14 21:26:26;;;;;;;4.88;1.70;;;;;;;19.70;45.98;100411.78;5018009;28;20625;-42
2022/06/14 21:28:57;;;;;;;5.20;3.65;;;;;;;19.63;46.02;100420.78;5003168;28;20109;-46
2022/06/14 21:31:26;;;;;;;3.47;3.15;;;;;;;19.55;46.66;100418.41;5013442;28;20053;-43
2022/06/14 21:41:54;;;;;;;5.43;2.30;;;;;;;19.42;47.42;100420.59;5016903;28;20410;-42
2022/06/14 21:44:22;;;;;;;3.63;2.85;;;;;;;19.32;47.58;100411.34;4973940;28;20122;-46
2022/06/14 21:46:51;;;;;;;6.10;2.35;;;;;;;19.24;47.78;100415.06;4998792;28;20086;-47
2022/06/14 21:49:21;;;;;;;4.32;1.95;;;;;;;19.18;47.15;100420.50;4996479;28;20503;-47
2022/06/14 21:51:55;;;;;;;8.55;2.80;;;;;;;19.11;47.56;100419.88;4986322;28;20050;-45
2022/06/14 21:54:27;;;;;;;4.25;1.67;;;;;;;19.07;47.75;100422.63;4995886;28;20445;-48
2022/06/14 21:56:56;;;;;;;4.72;2.53;;;;;;;18.99;47.65;100421.06;5020449;28;20108;-47
2022/06/14 21:59:31;;;;;;;4.97;2.35;;;;;;;18.92;47.74;100430.06;5002481;28;20101;-45
2022/06/14 22:09:49;;;;;;;7.97;2.75;;;;;;;18.67;48.59;100424.72;5041458;27;20413;-47
2022/06/14 22:12:35;;;;;;;5.50;2.75;;;;;;;18.61;48.84;100418.75;5026794;28;20050;-45
2022/06/14 22:15:05;;;;;;;3.75;2.65;;;;;;;18.54;48.99;100425.09;5020369;28;20041;-44
2022/06/14 22:17:32;;;;;;;5.05;2.05;;;;;;;18.48;48.81;100420.03;5032121;28;20045;-45
2022/06/14 22:19:59;;;;;;;4.95;2.35;;;;;;;18.44;48.87;100413.16;5048287;28;20087;-48
2022/06/14 22:22:26;;;;;;;4.95;3.22;;;;;;;18.39;49.71;100418.53;5062047;28;20044;-47
2022/06/14 22:24:52;;;;;;;4.72;2.13;;;;;;;18.34;50.00;100417.81;5067415;28;20045;-48
2022/06/14 22:32:46;;;;;;;4.57;2.63;;;;;;;18.16;50.36;100425.31;5004491;28;20465;-46
2022/06/14 22:35:19;;;;;;;5.30;2.75;;;;;;;18.11;50.98;100416.72;5003413;28;20075;-45
2022/06/14 22:37:46;;;;;;;5.13;2.75;;;;;;;18.05;50.60;100422.97;5003309;28;20054;-49
2022/06/14 22:40:14;;;;;;;5.32;2.50;;;;;;;18.03;51.37;100424.75;5000941;28;20058;-46
2022/06/14 22:42:44;;;;;;;7.07;3.00;;;;;;;17.95;51.65;100419.75;5017996;28;20561;-50
2022/06/14 22:45:17;;;;;;;5.18;2.65;;;;;;;17.89;51.48;100421.66;5002669;28;20076;-48
2022/06/14 22:47:44;;;;;;;7.65;3.03;;;;;;;17.85;51.36;100426.13;5001946;28;20057;-47
2022/06/14 22:50:12;;;;;;;7.82;3.30;;;;;;;17.81;51.76;100424.50;5004471;28;20187;-50
2022/06/14 22:53:14;;;;;;;4.65;2.70;;;;;;;17.68;51.75;100419.59;5002693;28;20050;-45
